SUDU

Santa Bernardina International Airport

Durazno, Uruguay
TAF SUDU 141730Z 1418/1518 27015KT 9999 OVC015 TX26/1518Z TN14/1509Z PROB40 TEMPO 1418/1502 24015KT 6000 RA BKN010 BKN060 BECMG 1503/1507 20015KT 9999 SCT020
Issued Valid From Valid To
Dec-14 @ 17:30 UTC
(4 hours ago)
Dec-14 @ 18:00 UTC
(4 hours ago)
Dec-15 @ 18:00 UTC
(in 20 hours)
Dec-14 @ 18:00 to Dec-15 @ 03:00
TAF SUDU 141730Z 1418/1518 27015KT 9999 OVC015 TX26/1518Z TN14/1509Z
Wind Visibility Clouds
270° at 15 knots 10,000+ meters
  • Overcast at 1,500' AGL
Temporary  (Probability 40%) Dec-14 @ 18:00 to Dec-15 @ 02:00
PROB40 TEMPO 1418/1502 24015KT 6000 RA BKN010 BKN060
Wind Visibility Clouds Conditions
240° at 15 knots 6,003 meters
  • Broken at 1,000' AGL
  • Broken at 6,000' AGL
  • Rain
Becoming Dec-15 @ 03:00 to Dec-15 @ 18:00
BECMG 1503/1507 20015KT 9999 SCT020
Wind Visibility Clouds
200° at 15 knots 10,000+ meters
  • Scattered at 2,000' AGL
TAF SUDU 141730Z 1418/1518 27015KT 9999 OVC015 TX26/1518Z TN14/1509Z PROB40 TEMPO 1418/1502 24015KT 6000 RA BKN010 BKN060 BECMG 1503/1507 20015KT 9999 SCT020
Issued Dec-14 @ 17:30 UTC
(4 hours ago)
Valid From Dec-14 @ 18:00 UTC
(4 hours ago)
Valid To Dec-15 @ 18:00 UTC
(in 20 hours)
Dec-14 @ 18:00 - Dec-15 @ 03:00
Wind Visibility
270° at 15 knots 10,000+ meters
Clouds
  • Overcast at 1,500' AGL
Probability 40% Temporary Dec-14 @ 18:00 - Dec-15 @ 02:00
Wind Visibility
240° at 15 knots 6,003 meters
Clouds
  • Broken at 1,000' AGL
  • Broken at 6,000' AGL
Conditions
  • Rain
Becoming Dec-15 @ 03:00 - Dec-15 @ 18:00
Wind Visibility
200° at 15 knots 10,000+ meters
Clouds
  • Scattered at 2,000' AGL